createdAt,value
2022-10-04T00:00:47.644Z,16.16
2022-10-04T00:03:19.819Z,16.17
2022-10-04T00:05:49.178Z,16.15
2022-10-04T00:08:25.479Z,15.75
2022-10-04T00:11:02.817Z,16.14
2022-10-04T00:13:30.330Z,16.13
2022-10-04T00:15:57.786Z,16.09
2022-10-04T00:18:30.099Z,16.13
2022-10-04T00:21:02.707Z,16.05
2022-10-04T00:23:42.096Z,16.13
2022-10-04T00:26:14.210Z,15.54
2022-10-04T00:28:45.487Z,15.68
2022-10-04T00:31:18.113Z,16.09
2022-10-04T00:33:46.060Z,16.08
2022-10-04T00:36:41.666Z,16.09
2022-10-04T00:39:18.413Z,15.66
2022-10-04T00:41:58.441Z,15.53
2022-10-04T00:44:29.357Z,16.04
2022-10-04T00:46:56.904Z,16.02
2022-10-04T00:49:25.324Z,16.02
2022-10-04T00:51:54.088Z,15.62
2022-10-04T00:54:24.043Z,16.02
2022-10-04T00:56:53.123Z,15.60
2022-10-04T00:59:28.995Z,16.02
2022-10-04T01:01:59.334Z,16.01
2022-10-04T01:04:34.729Z,16.00
2022-10-04T01:07:03.039Z,15.99
2022-10-04T01:09:32.361Z,15.97
2022-10-04T01:12:02.970Z,16.00
2022-10-04T01:14:33.457Z,15.99
2022-10-04T01:17:00.899Z,15.97
2022-10-04T01:19:31.100Z,15.95
2022-10-04T01:21:59.480Z,15.93
2022-10-04T01:24:28.212Z,15.94
2022-10-04T01:26:55.689Z,15.90
2022-10-04T01:29:26.024Z,15.93
2022-10-04T01:31:54.426Z,15.93
2022-10-04T01:34:22.678Z,15.94
2022-10-04T01:36:52.406Z,15.82
2022-10-04T01:39:21.171Z,15.92
2022-10-04T01:41:53.884Z,15.93
2022-10-04T01:44:25.675Z,15.91
2022-10-04T01:46:53.562Z,15.91
2022-10-04T01:49:21.999Z,15.71
2022-10-04T01:51:55.202Z,15.58
2022-10-04T01:54:24.895Z,15.86
2022-10-04T01:56:57.303Z,15.86
2022-10-04T01:59:26.597Z,15.85
2022-10-04T02:01:56.652Z,15.66
2022-10-04T02:04:27.185Z,15.46
2022-10-04T02:06:56.446Z,15.85
2022-10-04T02:09:25.001Z,15.75
2022-10-04T02:11:53.980Z,15.84
2022-10-04T02:14:22.566Z,15.79
2022-10-04T02:16:52.116Z,15.82
2022-10-04T02:19:19.875Z,15.84
2022-10-04T02:21:47.560Z,15.69
2022-10-04T02:24:16.021Z,15.81
2022-10-04T02:26:43.497Z,15.82
2022-10-04T02:29:12.283Z,15.79
2022-10-04T02:31:57.447Z,15.80
2022-10-04T02:34:24.862Z,15.79
2022-10-04T02:36:52.462Z,15.62
2022-10-04T02:39:22.879Z,15.52
2022-10-04T02:41:51.817Z,15.75
2022-10-04T02:44:21.690Z,15.75
2022-10-04T02:46:51.317Z,15.77
2022-10-04T02:49:22.032Z,15.74
2022-10-04T02:51:50.953Z,15.73
2022-10-04T02:54:21.607Z,15.32
2022-10-04T02:56:52.390Z,15.75
2022-10-04T02:59:21.203Z,15.72
2022-10-04T03:01:51.436Z,15.70
2022-10-04T03:04:21.003Z,15.68
2022-10-04T03:06:48.828Z,15.69
2022-10-04T03:09:16.471Z,15.72
2022-10-04T03:11:44.165Z,15.69
2022-10-04T03:14:14.724Z,15.72
2022-10-04T03:16:44.389Z,15.44
2022-10-04T03:19:11.859Z,15.68
2022-10-04T03:21:39.929Z,15.68
2022-10-04T03:24:07.486Z,15.70
2022-10-04T03:26:37.675Z,15.68
2022-10-04T03:29:07.280Z,15.42
2022-10-04T03:31:34.724Z,15.31
2022-10-04T03:34:03.497Z,15.63
2022-10-04T03:36:30.950Z,15.65
2022-10-04T03:38:58.379Z,15.64
2022-10-04T03:41:26.198Z,15.64
2022-10-04T03:43:54.575Z,15.66
2022-10-04T03:46:23.091Z,15.61
2022-10-04T03:48:52.048Z,15.60
2022-10-04T03:51:24.000Z,15.30
2022-10-04T03:53:52.493Z,15.34
2022-10-04T03:56:21.463Z,15.61
2022-10-04T03:58:48.921Z,15.57
2022-10-04T04:01:21.494Z,15.60
2022-10-04T04:03:56.072Z,15.57
2022-10-04T04:06:24.836Z,15.55
2022-10-04T04:08:53.739Z,15.57
2022-10-04T04:11:23.433Z,15.59
2022-10-04T04:13:52.771Z,15.08
2022-10-04T04:16:20.518Z,15.33
2022-10-04T04:18:47.948Z,15.55
2022-10-04T04:21:16.135Z,15.52
2022-10-04T04:23:48.513Z,15.49
2022-10-04T04:26:19.649Z,15.43
2022-10-04T04:28:48.972Z,15.57
2022-10-04T04:31:19.410Z,15.53
2022-10-04T04:33:48.791Z,15.17
2022-10-04T04:36:17.014Z,15.37
2022-10-04T04:38:59.727Z,15.19
2022-10-04T04:41:27.437Z,15.38
2022-10-04T04:43:54.857Z,15.46
2022-10-04T04:46:27.537Z,15.42
2022-10-04T04:49:01.140Z,15.43
2022-10-04T04:51:28.603Z,15.28
2022-10-04T04:53:57.340Z,15.46
2022-10-04T04:56:26.552Z,15.47
2022-10-04T04:58:54.407Z,15.50
2022-10-04T05:01:24.390Z,15.17
2022-10-04T05:04:02.099Z,15.45
2022-10-04T05:06:34.440Z,15.41
2022-10-04T05:09:03.187Z,15.40
2022-10-04T05:11:31.861Z,15.46
2022-10-04T05:14:00.664Z,15.38
2022-10-04T05:16:29.240Z,15.23
2022-10-04T05:18:56.798Z,15.14
2022-10-04T05:21:26.228Z,15.35
2022-10-04T05:23:53.644Z,15.46
2022-10-04T05:26:31.236Z,15.46
2022-10-04T05:29:00.782Z,15.43
2022-10-04T05:31:36.623Z,15.00
2022-10-04T05:34:04.915Z,15.30
2022-10-04T05:37:01.880Z,15.47
2022-10-04T05:39:30.385Z,15.44
2022-10-04T05:42:02.511Z,15.00
2022-10-04T05:44:30.571Z,15.48
2022-10-04T05:46:58.403Z,15.47
2022-10-04T05:49:26.401Z,15.45
2022-10-04T05:51:55.031Z,15.45
2022-10-04T05:54:23.388Z,15.41
2022-10-04T05:57:08.489Z,15.15
2022-10-04T05:59:52.052Z,15.45
2022-10-04T06:02:25.181Z,15.43
2022-10-04T06:04:59.912Z,15.46
2022-10-04T06:07:30.981Z,15.44
2022-10-04T06:10:20.739Z,15.04
2022-10-04T06:12:53.156Z,15.38
2022-10-04T06:15:27.957Z,15.39
2022-10-04T06:18:05.986Z,15.40
2022-10-04T06:21:03.087Z,15.38
2022-10-04T06:23:30.503Z,15.39
2022-10-04T06:25:59.404Z,15.39
2022-10-04T06:28:30.601Z,15.43
2022-10-04T06:31:10.957Z,15.16
2022-10-04T06:33:50.420Z,15.45
2022-10-04T06:36:30.766Z,15.28
2022-10-04T06:39:19.229Z,15.45
2022-10-04T06:41:56.214Z,15.26
2022-10-04T06:44:32.241Z,15.44
2022-10-04T06:47:04.724Z,15.49
2022-10-04T06:49:34.437Z,15.52
2022-10-04T06:52:30.650Z,15.53
2022-10-04T06:55:21.877Z,15.57
2022-10-04T06:58:09.869Z,15.52
2022-10-04T07:00:41.105Z,15.53
2022-10-04T07:03:12.269Z,15.26
2022-10-04T07:05:41.024Z,15.59
2022-10-04T07:08:30.922Z,15.67
2022-10-04T07:11:00.520Z,15.74
2022-10-04T07:13:40.867Z,15.79
2022-10-04T07:16:13.347Z,15.84
2022-10-04T07:18:45.117Z,15.83
2022-10-04T07:21:13.825Z,15.81
2022-10-04T07:23:45.747Z,15.77
2022-10-04T07:26:19.342Z,15.72
2022-10-04T07:29:04.592Z,15.75
2022-10-04T07:31:35.218Z,15.46
2022-10-04T07:34:03.387Z,15.79
2022-10-04T07:36:32.976Z,15.82
2022-10-04T07:39:01.970Z,15.85
2022-10-04T07:41:30.926Z,15.87
2022-10-04T07:43:59.390Z,15.87
2022-10-04T07:46:38.540Z,15.90
2022-10-04T07:49:05.924Z,15.90
2022-10-04T07:51:35.206Z,15.90
2022-10-04T07:54:03.381Z,15.96
2022-10-04T07:56:33.909Z,16.02
2022-10-04T07:59:08.430Z,16.03
2022-10-04T08:01:39.299Z,15.87
2022-10-04T08:04:15.268Z,15.74
2022-10-04T08:06:56.296Z,16.09
2022-10-04T08:09:34.875Z,15.88
2022-10-04T08:12:07.035Z,16.12
2022-10-04T08:14:40.918Z,16.16
2022-10-04T08:17:15.755Z,16.15
2022-10-04T08:19:48.412Z,16.19
2022-10-04T08:22:22.135Z,16.21
2022-10-04T08:24:54.383Z,16.15
2022-10-04T08:27:36.731Z,16.32
2022-10-04T08:30:11.176Z,16.18
2022-10-04T08:32:52.882Z,16.31
2022-10-04T08:35:37.464Z,16.36
2022-10-04T08:38:21.128Z,16.50
2022-10-04T08:41:19.005Z,16.40
2022-10-04T08:44:23.097Z,16.37
2022-10-04T08:47:13.931Z,16.30
2022-10-04T08:50:04.099Z,16.69
2022-10-04T08:52:42.062Z,16.73
2022-10-04T08:55:46.963Z,16.80
2022-10-04T08:58:23.402Z,16.43
2022-10-04T09:00:58.472Z,16.55
2022-10-04T09:03:49.876Z,17.01
2022-10-04T09:06:38.770Z,17.04
2022-10-04T09:10:03.194Z,17.02
2022-10-04T09:12:47.118Z,16.88
2022-10-04T09:15:35.477Z,16.98
2022-10-04T09:18:05.316Z,16.48
2022-10-04T09:20:43.144Z,16.91
2022-10-04T09:23:37.239Z,17.03
2022-10-04T09:26:11.185Z,16.81
2022-10-04T09:29:04.750Z,16.67
2022-10-04T09:31:47.749Z,16.95
2022-10-04T09:34:23.838Z,17.14
2022-10-04T09:37:23.080Z,17.19
2022-10-04T09:40:15.860Z,17.22
2022-10-04T09:43:14.164Z,17.26
2022-10-04T09:45:50.865Z,17.14
2022-10-04T09:48:26.239Z,17.33
2022-10-04T09:51:16.825Z,16.98
2022-10-04T09:53:54.507Z,17.31
2022-10-04T09:56:34.137Z,17.02
2022-10-04T09:59:23.434Z,17.11
2022-10-04T10:04:26.913Z,17.21
2022-10-04T10:07:15.036Z,17.19
2022-10-04T10:10:03.066Z,17.69
2022-10-04T10:12:58.627Z,17.73
2022-10-04T10:15:28.724Z,17.61
2022-10-04T10:17:56.587Z,18.07
2022-10-04T10:20:35.496Z,18.17
2022-10-04T10:23:21.723Z,18.23
2022-10-04T10:25:59.028Z,17.78
2022-10-04T10:28:40.639Z,18.37
2022-10-04T10:31:21.504Z,18.42
2022-10-04T10:34:14.965Z,18.53
2022-10-04T10:36:50.169Z,18.34
2022-10-04T10:39:42.450Z,18.23
2022-10-04T10:42:39.038Z,18.59
2022-10-04T10:45:16.468Z,18.64
2022-10-04T10:47:46.330Z,18.65
2022-10-04T10:50:25.500Z,18.32
2022-10-04T10:53:17.473Z,18.65
2022-10-04T10:56:17.685Z,18.77
2022-10-04T10:58:55.952Z,18.74
2022-10-04T11:01:47.216Z,18.42
2022-10-04T11:04:36.249Z,18.27
2022-10-04T11:07:13.993Z,18.36
2022-10-04T11:09:52.607Z,18.83
2022-10-04T11:12:34.677Z,18.45
2022-10-04T11:15:38.881Z,18.87
2022-10-04T11:18:45.053Z,18.87
2022-10-04T11:21:45.941Z,18.88
2022-10-04T11:24:32.331Z,18.89
2022-10-04T11:27:17.189Z,18.88
2022-10-04T11:29:55.139Z,18.61
2022-10-04T11:32:41.288Z,18.86
2022-10-04T11:35:50.228Z,18.77
2022-10-04T11:38:30.976Z,18.68
2022-10-04T11:41:10.814Z,18.51
2022-10-04T11:43:48.191Z,18.47
2022-10-04T11:46:35.967Z,18.54
2022-10-04T11:49:11.133Z,18.16
2022-10-04T11:52:04.423Z,18.49
2022-10-04T11:54:51.969Z,18.46
2022-10-04T11:57:27.635Z,18.03
2022-10-04T12:00:00.772Z,18.46
2022-10-04T12:02:56.493Z,18.43
2022-10-04T12:05:53.793Z,18.28
2022-10-04T12:08:25.792Z,18.01
2022-10-04T12:11:25.186Z,17.96
2022-10-04T12:13:59.624Z,18.39
2022-10-04T12:16:38.230Z,18.35
2022-10-04T12:19:27.784Z,17.86
2022-10-04T12:22:15.682Z,18.42
2022-10-04T12:25:07.939Z,18.42
2022-10-04T12:28:11.479Z,17.96
2022-10-04T12:30:44.495Z,18.43
2022-10-04T12:33:13.983Z,18.47
2022-10-04T12:35:57.317Z,18.48
2022-10-04T12:38:55.155Z,18.47
2022-10-04T12:41:31.135Z,18.47
2022-10-04T12:44:07.757Z,18.49
2022-10-04T12:46:39.330Z,18.51
2022-10-04T12:49:21.610Z,18.56
2022-10-04T12:51:55.404Z,18.63
2022-10-04T12:54:33.381Z,18.58
2022-10-04T12:57:07.256Z,18.27
2022-10-04T12:59:48.379Z,18.36
2022-10-04T13:02:23.353Z,18.62
2022-10-04T13:04:52.437Z,18.62
2022-10-04T13:07:31.702Z,18.13
2022-10-04T13:10:24.031Z,18.54
2022-10-04T13:13:11.068Z,18.67
2022-10-04T13:18:30.452Z,18.36
2022-10-04T13:21:01.120Z,18.79
2022-10-04T13:23:37.620Z,18.70
2022-10-04T13:26:16.357Z,18.74
2022-10-04T13:28:47.860Z,18.73
2022-10-04T13:31:21.748Z,18.73
2022-10-04T13:33:52.076Z,18.72
2022-10-04T13:36:21.038Z,18.75
2022-10-04T13:39:16.995Z,18.79
2022-10-04T13:41:57.218Z,18.92
2022-10-04T13:44:51.650Z,19.05
2022-10-04T13:47:34.626Z,18.79
2022-10-04T13:50:09.971Z,18.67
2022-10-04T13:52:59.996Z,19.20
2022-10-04T13:55:46.860Z,19.27
2022-10-04T13:58:22.450Z,19.33
2022-10-04T14:01:05.900Z,18.86
2022-10-04T14:03:42.345Z,18.93
2022-10-04T14:06:27.892Z,19.31
2022-10-04T14:09:23.181Z,19.10
2022-10-04T14:12:09.885Z,18.95
2022-10-04T14:15:18.768Z,19.33
2022-10-04T14:18:27.536Z,18.99
2022-10-04T14:21:39.826Z,19.39
2022-10-04T14:24:45.815Z,19.39
2022-10-04T14:27:37.297Z,19.02
2022-10-04T14:30:23.193Z,19.46
2022-10-04T14:33:32.578Z,19.44
2022-10-04T14:36:29.573Z,19.49
2022-10-04T14:39:18.868Z,19.52
2022-10-04T14:42:11.601Z,19.54
2022-10-04T14:45:07.882Z,19.58
2022-10-04T14:48:07.137Z,19.64
2022-10-04T14:50:41.192Z,19.68
2022-10-04T14:53:14.932Z,19.68
2022-10-04T14:56:09.137Z,19.74
2022-10-04T14:58:41.013Z,19.81
2022-10-04T15:01:22.609Z,19.87
2022-10-04T15:04:01.297Z,19.87
2022-10-04T15:06:36.933Z,19.95
2022-10-04T15:09:20.929Z,19.97
2022-10-04T15:12:21.458Z,20.00
2022-10-04T15:14:42.689Z,19.91
2022-10-04T15:17:12.514Z,19.98
2022-10-04T15:20:00.982Z,19.96
2022-10-04T15:22:29.575Z,19.95
2022-10-04T15:24:57.089Z,19.61
2022-10-04T15:27:47.164Z,19.99
2022-10-04T15:30:19.312Z,19.98
2022-10-04T15:32:51.034Z,19.95
2022-10-04T15:35:22.970Z,20.00
2022-10-04T15:37:53.485Z,20.02
2022-10-04T15:40:30.515Z,19.70
2022-10-04T15:43:07.313Z,20.02
2022-10-04T15:46:15.290Z,20.01
2022-10-04T15:48:57.630Z,19.99
2022-10-04T15:51:42.283Z,19.94
2022-10-04T15:54:15.344Z,19.56
2022-10-04T15:56:46.333Z,19.88
2022-10-04T15:59:41.293Z,19.85
2022-10-04T16:02:22.365Z,19.82
2022-10-04T16:04:58.528Z,19.82
2022-10-04T16:07:39.727Z,19.82
2022-10-04T16:10:18.939Z,19.26
2022-10-04T16:13:26.162Z,19.72
2022-10-04T16:16:26.344Z,19.68
2022-10-04T16:18:55.605Z,19.63
2022-10-04T16:21:29.920Z,19.60
2022-10-04T16:24:30.503Z,19.56
2022-10-04T16:27:13.881Z,19.36
2022-10-04T16:29:44.906Z,19.11
2022-10-04T16:32:13.312Z,19.43
2022-10-04T16:34:48.833Z,18.99
2022-10-04T16:37:22.182Z,19.35
2022-10-04T16:40:00.692Z,19.32
2022-10-04T16:42:29.858Z,19.29
2022-10-04T16:44:59.692Z,18.87
2022-10-04T16:47:29.278Z,19.23
2022-10-04T16:49:57.837Z,18.60
2022-10-04T16:52:49.526Z,19.18
2022-10-04T16:55:22.500Z,18.78
2022-10-04T16:58:22.476Z,19.11
2022-10-04T17:00:49.988Z,19.05
2022-10-04T17:03:20.333Z,18.78
2022-10-04T17:06:02.911Z,19.00
2022-10-04T17:08:49.763Z,18.44
2022-10-04T17:11:44.683Z,18.94
2022-10-04T17:14:32.186Z,18.67
2022-10-04T17:17:01.490Z,18.89
2022-10-04T17:19:32.703Z,18.42
2022-10-04T17:22:06.979Z,18.84
2022-10-04T17:24:43.140Z,18.75
2022-10-04T17:27:26.035Z,18.79
2022-10-04T17:30:04.384Z,18.41
2022-10-04T17:32:36.278Z,18.75
2022-10-04T17:35:13.179Z,18.73
2022-10-04T17:37:44.540Z,18.71
2022-10-04T17:40:28.525Z,18.69
2022-10-04T17:43:00.013Z,18.37
2022-10-04T17:45:45.571Z,18.64
2022-10-04T17:48:32.623Z,18.54
2022-10-04T17:51:19.492Z,18.62
2022-10-04T17:54:06.152Z,18.21
2022-10-04T17:56:37.690Z,18.13
2022-10-04T17:59:08.526Z,18.59
2022-10-04T18:01:37.118Z,18.57
2022-10-04T18:04:09.291Z,18.56
2022-10-04T18:06:38.706Z,18.54
2022-10-04T18:09:09.888Z,18.53
2022-10-04T18:11:44.041Z,18.19
2022-10-04T18:14:13.186Z,18.09
2022-10-04T18:16:47.464Z,18.50
2022-10-04T18:19:37.861Z,18.48
2022-10-04T18:22:10.947Z,18.46
2022-10-04T18:24:38.391Z,18.45
2022-10-04T18:27:18.347Z,18.46
2022-10-04T18:30:00.399Z,18.43
2022-10-04T18:32:35.604Z,18.41
2022-10-04T18:35:08.266Z,18.39
2022-10-04T18:37:37.129Z,18.39
2022-10-04T18:40:11.890Z,18.39
2022-10-04T18:42:43.004Z,17.99
2022-10-04T18:45:20.158Z,18.32
2022-10-04T18:47:50.648Z,18.35
2022-10-04T18:50:23.917Z,17.96
2022-10-04T18:53:08.172Z,18.34
2022-10-04T18:55:40.429Z,18.32
2022-10-04T18:58:49.276Z,18.31
2022-10-04T19:01:45.558Z,18.16
2022-10-04T19:04:15.249Z,18.10
2022-10-04T19:06:42.833Z,18.26
2022-10-04T19:09:14.160Z,18.26
2022-10-04T19:11:44.090Z,18.17
2022-10-04T19:14:20.767Z,18.25
2022-10-04T19:16:51.085Z,18.23
2022-10-04T19:19:31.992Z,18.22
2022-10-04T19:22:02.059Z,17.83
2022-10-04T19:24:45.283Z,18.19
2022-10-04T19:27:18.186Z,18.19
2022-10-04T19:29:54.838Z,18.19
2022-10-04T19:32:27.333Z,18.18
2022-10-04T19:34:59.252Z,18.17
2022-10-04T19:37:27.540Z,18.15
2022-10-04T19:39:59.917Z,17.91
2022-10-04T19:42:29.366Z,18.14
2022-10-04T19:45:06.006Z,18.14
2022-10-04T19:47:41.324Z,18.13
2022-10-04T19:50:17.647Z,17.84
2022-10-04T19:52:51.424Z,18.10
2022-10-04T19:55:22.912Z,18.10
2022-10-04T19:57:51.884Z,18.08
2022-10-04T20:00:21.916Z,18.07
2022-10-04T20:02:49.949Z,18.06
2022-10-04T20:05:20.031Z,17.99
2022-10-04T20:07:50.814Z,18.04
2022-10-04T20:10:24.237Z,17.93
2022-10-04T20:13:23.369Z,18.04
2022-10-04T20:15:53.392Z,18.01
2022-10-04T20:19:04.993Z,18.01
2022-10-04T20:21:32.768Z,17.97
2022-10-04T20:24:01.399Z,17.93
2022-10-04T20:26:53.705Z,17.97
2022-10-04T20:30:07.464Z,17.95
2022-10-04T20:32:58.376Z,17.94
2022-10-04T20:36:09.516Z,17.93
2022-10-04T20:39:05.881Z,17.92
2022-10-04T20:42:22.293Z,17.91
2022-10-04T20:44:54.151Z,17.86
2022-10-04T20:47:39.184Z,17.85
2022-10-04T20:50:36.318Z,17.48
2022-10-04T20:53:05.975Z,17.85
2022-10-04T20:55:34.866Z,17.60
2022-10-04T20:58:03.109Z,17.83
2022-10-04T21:00:34.258Z,17.83
2022-10-04T21:03:09.589Z,17.83
2022-10-04T21:05:39.473Z,17.81
2022-10-04T21:08:31.136Z,17.82
2022-10-04T21:11:22.410Z,17.83
2022-10-04T21:13:54.804Z,17.74
2022-10-04T21:16:41.975Z,17.76
2022-10-04T21:19:50.133Z,17.76
2022-10-04T21:22:40.960Z,17.77
2022-10-04T21:25:31.832Z,17.79
2022-10-04T21:28:33.596Z,17.81
2022-10-04T21:31:01.378Z,17.37
2022-10-04T21:33:28.848Z,17.81
2022-10-04T21:35:56.269Z,17.80
2022-10-04T21:38:25.034Z,17.82
2022-10-04T21:40:52.734Z,17.76
2022-10-04T21:43:20.164Z,17.82
2022-10-04T21:45:47.610Z,17.81
2022-10-04T21:48:15.103Z,17.79
2022-10-04T21:50:43.417Z,17.82
2022-10-04T21:53:11.000Z,17.79
2022-10-04T21:55:39.772Z,17.79
2022-10-04T21:58:07.223Z,17.75
2022-10-04T22:00:34.646Z,17.79
2022-10-04T22:03:02.065Z,17.77
2022-10-04T22:05:29.516Z,17.77
2022-10-04T22:07:58.097Z,17.75
2022-10-04T22:10:25.565Z,17.75
2022-10-04T22:12:56.755Z,17.73
2022-10-04T22:15:25.756Z,17.73
2022-10-04T22:17:53.428Z,17.72
2022-10-04T22:20:20.848Z,17.71
2022-10-04T22:22:48.291Z,17.72
2022-10-04T22:25:16.670Z,17.30
2022-10-04T22:27:44.107Z,17.71
2022-10-04T22:30:22.493Z,17.70
2022-10-04T22:32:49.936Z,17.67
2022-10-04T22:35:18.638Z,17.68
2022-10-04T22:37:46.119Z,17.67
2022-10-04T22:40:16.020Z,17.64
2022-10-04T22:42:43.438Z,17.64
2022-10-04T22:45:17.013Z,17.63
2022-10-04T22:47:45.781Z,17.62
2022-10-04T22:50:18.264Z,17.59
2022-10-04T22:52:45.697Z,17.62
2022-10-04T22:55:14.346Z,17.60
2022-10-04T22:57:41.806Z,17.62
2022-10-04T23:00:11.411Z,17.14
2022-10-04T23:02:38.911Z,17.61
2022-10-04T23:05:13.124Z,17.60
2022-10-04T23:07:40.687Z,17.57
2022-10-04T23:10:08.813Z,17.55
2022-10-04T23:12:36.303Z,17.56
2022-10-04T23:15:06.183Z,17.55
2022-10-04T23:17:35.259Z,17.54
2022-10-04T23:20:06.887Z,17.51
2022-10-04T23:22:35.697Z,17.52
2022-10-04T23:25:03.167Z,17.51
2022-10-04T23:27:30.732Z,17.50
2022-10-04T23:29:59.436Z,17.51
2022-10-04T23:32:26.889Z,17.49
2022-10-04T23:34:56.974Z,17.37
2022-10-04T23:37:26.649Z,17.49
2022-10-04T23:39:55.413Z,17.44
2022-10-04T23:42:28.703Z,17.47
2022-10-04T23:44:56.463Z,17.45
2022-10-04T23:47:24.272Z,17.44
2022-10-04T23:49:52.908Z,17.19
2022-10-04T23:52:21.415Z,17.41
2022-10-04T23:54:49.148Z,17.42
2022-10-04T23:57:20.851Z,17.31
2022-10-04T23:59:48.287Z,17.41
